createdAt,value
2023-03-17T00:01:57.328Z,7.95
2023-03-17T00:04:27.454Z,8.73
2023-03-17T00:06:56.624Z,11.65
2023-03-17T00:09:24.846Z,8.40
2023-03-17T00:11:54.499Z,6.43
2023-03-17T00:14:24.473Z,7.53
2023-03-17T00:16:53.618Z,7.57
2023-03-17T00:19:27.533Z,9.20
2023-03-17T00:21:56.020Z,8.23
2023-03-17T00:24:23.587Z,8.77
2023-03-17T00:26:51.205Z,7.80
2023-03-17T00:29:20.426Z,6.72
2023-03-17T00:31:48.042Z,6.57
2023-03-17T00:34:18.235Z,5.68
2023-03-17T00:36:49.860Z,7.45
2023-03-17T00:39:18.447Z,4.75
2023-03-17T00:44:13.194Z,5.78
2023-03-17T00:46:42.533Z,7.88
2023-03-17T00:51:44.582Z,6.97
2023-03-17T00:54:12.739Z,7.63
2023-03-17T00:56:41.549Z,4.75
2023-03-17T00:59:20.424Z,5.55
2023-03-17T01:01:50.035Z,5.68
2023-03-17T01:04:18.132Z,5.57
2023-03-17T01:06:47.838Z,4.85
2023-03-17T01:09:16.490Z,4.20
2023-03-17T01:11:44.224Z,4.80
2023-03-17T01:14:13.349Z,4.45
2023-03-17T01:16:41.109Z,5.22
2023-03-17T01:19:10.788Z,5.32
2023-03-17T01:21:38.562Z,6.47
2023-03-17T01:24:08.173Z,4.78
2023-03-17T01:26:35.949Z,3.55
2023-03-17T01:29:04.672Z,6.13
2023-03-17T01:31:32.379Z,4.55
2023-03-17T01:34:00.002Z,5.10
2023-03-17T01:36:28.955Z,4.43
2023-03-17T01:38:57.157Z,5.55
2023-03-17T01:41:24.917Z,4.72
2023-03-17T01:43:52.497Z,7.70
2023-03-17T01:46:29.152Z,4.47
2023-03-17T01:49:17.550Z,4.07
2023-03-17T01:51:54.451Z,5.75
2023-03-17T01:54:28.105Z,6.15
2023-03-17T01:56:58.459Z,5.78
2023-03-17T01:59:32.483Z,4.57
2023-03-17T02:02:05.916Z,5.50
2023-03-17T02:04:34.883Z,4.65
2023-03-17T02:07:05.074Z,4.13
2023-03-17T02:09:34.006Z,4.28
2023-03-17T02:12:03.742Z,5.45
2023-03-17T02:14:31.700Z,3.78
2023-03-17T02:16:59.307Z,4.18
2023-03-17T02:19:27.011Z,4.47
2023-03-17T02:21:57.941Z,6.30
2023-03-17T02:24:32.938Z,5.90
2023-03-17T02:27:06.494Z,3.38
2023-03-17T02:29:35.899Z,4.85
2023-03-17T02:32:04.363Z,4.68
2023-03-17T02:34:32.731Z,5.03
2023-03-17T02:37:01.705Z,3.58
2023-03-17T02:39:31.849Z,4.13
2023-03-17T02:41:59.828Z,2.92
2023-03-17T02:44:27.648Z,5.38
2023-03-17T02:46:55.284Z,3.60
2023-03-17T02:49:23.883Z,4.88
2023-03-17T02:51:51.955Z,4.07
2023-03-17T02:54:21.294Z,7.22
2023-03-17T02:56:48.888Z,3.47
2023-03-17T02:59:16.905Z,3.75
2023-03-17T03:01:44.638Z,4.65
2023-03-17T03:04:13.352Z,6.07
2023-03-17T03:06:42.501Z,4.13
2023-03-17T03:09:11.598Z,4.00
2023-03-17T03:11:41.375Z,4.22
2023-03-17T03:14:09.436Z,4.57
2023-03-17T03:16:37.244Z,8.60
2023-03-17T03:19:04.899Z,13.15
2023-03-17T03:21:32.621Z,6.13
2023-03-17T03:24:00.259Z,6.45
2023-03-17T03:26:28.361Z,3.20
2023-03-17T03:28:58.417Z,3.25
2023-03-17T03:31:26.195Z,4.43
2023-03-17T03:33:55.897Z,4.10
2023-03-17T03:36:23.763Z,4.93
2023-03-17T03:38:51.592Z,5.40
2023-03-17T03:41:19.144Z,3.75
2023-03-17T03:43:46.655Z,3.65
2023-03-17T03:46:15.777Z,3.35
2023-03-17T03:48:43.402Z,5.10
2023-03-17T03:51:11.109Z,5.38
2023-03-17T03:53:38.704Z,4.93
2023-03-17T03:56:07.333Z,2.85
2023-03-17T03:58:34.943Z,3.45
2023-03-17T04:01:05.351Z,3.95
2023-03-17T04:03:34.589Z,5.70
2023-03-17T04:06:03.515Z,3.83
2023-03-17T04:08:32.533Z,3.50
2023-03-17T04:11:00.294Z,8.45
2023-03-17T04:13:28.014Z,5.10
2023-03-17T04:15:55.651Z,3.80
2023-03-17T04:18:23.689Z,5.18
2023-03-17T04:20:52.580Z,4.13
2023-03-17T04:23:20.235Z,3.83
2023-03-17T04:25:47.928Z,4.68
2023-03-17T04:28:15.479Z,5.43
2023-03-17T04:30:42.963Z,5.13
2023-03-17T04:33:13.716Z,4.05
2023-03-17T04:35:41.440Z,5.60
2023-03-17T04:38:13.263Z,3.85
2023-03-17T04:40:40.867Z,3.75
2023-03-17T04:43:10.146Z,4.38
2023-03-17T04:45:38.278Z,3.53
2023-03-17T04:48:06.761Z,3.25
2023-03-17T04:50:34.675Z,2.47
2023-03-17T04:53:02.376Z,4.43
2023-03-17T04:55:31.546Z,3.22
2023-03-17T04:57:59.234Z,7.22
2023-03-17T05:00:26.830Z,3.90
2023-03-17T05:02:54.404Z,2.85
2023-03-17T05:05:21.954Z,5.63
2023-03-17T05:07:49.481Z,2.92
2023-03-17T05:10:17.203Z,5.38
2023-03-17T05:12:46.211Z,4.25
2023-03-17T05:15:14.248Z,4.55
2023-03-17T05:17:41.777Z,5.65
2023-03-17T05:20:10.667Z,3.78
2023-03-17T05:22:38.465Z,5.55
2023-03-17T05:25:06.692Z,3.97
2023-03-17T05:27:34.264Z,3.92
2023-03-17T05:30:03.646Z,3.80
2023-03-17T05:32:32.018Z,5.03
2023-03-17T05:34:59.823Z,2.67
2023-03-17T05:37:27.390Z,4.68
2023-03-17T05:39:54.941Z,5.03
2023-03-17T05:42:22.464Z,4.53
2023-03-17T05:44:50.029Z,5.88
2023-03-17T05:47:18.944Z,4.70
2023-03-17T05:49:46.773Z,7.15
2023-03-17T05:52:14.314Z,3.65
2023-03-17T05:54:42.004Z,6.10
2023-03-17T05:57:12.113Z,4.65
2023-03-17T05:59:39.643Z,8.00
2023-03-17T06:02:07.338Z,13.77
2023-03-17T06:04:36.331Z,8.27
2023-03-17T06:07:04.847Z,5.38
2023-03-17T06:09:33.091Z,14.50
2023-03-17T06:12:00.769Z,3.35
2023-03-17T06:14:28.410Z,3.95
2023-03-17T06:16:56.076Z,5.53
2023-03-17T06:19:23.890Z,3.90
2023-03-17T06:21:52.879Z,4.28
2023-03-17T06:24:20.473Z,5.32
2023-03-17T06:26:48.030Z,3.55
2023-03-17T06:29:15.623Z,4.60
2023-03-17T06:31:50.061Z,3.42
2023-03-17T06:34:17.864Z,4.28
2023-03-17T06:36:46.226Z,4.70
2023-03-17T06:39:15.776Z,5.85
2023-03-17T06:41:43.436Z,5.97
2023-03-17T06:44:11.484Z,4.20
2023-03-17T06:46:39.119Z,3.92
2023-03-17T06:49:07.935Z,4.28
2023-03-17T06:51:37.177Z,6.28
2023-03-17T06:54:04.819Z,4.72
2023-03-17T06:56:34.039Z,3.33
2023-03-17T06:59:01.638Z,3.90
2023-03-17T07:01:29.242Z,4.75
2023-03-17T07:03:56.868Z,4.75
2023-03-17T07:06:24.460Z,7.05
2023-03-17T07:08:52.330Z,12.05
2023-03-17T07:11:20.276Z,10.32
2023-03-17T07:13:49.427Z,7.80
2023-03-17T07:16:19.424Z,5.47
2023-03-17T07:18:46.985Z,3.97
2023-03-17T07:21:15.579Z,5.63
2023-03-17T07:23:43.430Z,5.57
2023-03-17T07:26:11.070Z,5.05
2023-03-17T07:28:38.704Z,5.15
2023-03-17T07:31:09.520Z,3.97
2023-03-17T07:33:37.246Z,4.43
2023-03-17T07:36:07.200Z,5.88
2023-03-17T07:38:34.937Z,4.65
2023-03-17T07:41:03.621Z,5.50
2023-03-17T07:43:31.799Z,4.25
2023-03-17T07:45:59.408Z,4.72
2023-03-17T07:48:28.591Z,5.68
2023-03-17T07:50:56.373Z,6.28
2023-03-17T07:53:23.920Z,4.70
2023-03-17T07:55:51.537Z,6.68
2023-03-17T07:58:20.947Z,4.80
2023-03-17T08:00:48.882Z,6.90
2023-03-17T08:03:16.794Z,4.18
2023-03-17T08:05:47.052Z,5.35
2023-03-17T08:08:15.430Z,9.80
2023-03-17T08:10:43.002Z,8.68
2023-03-17T08:13:10.641Z,4.45
2023-03-17T08:15:38.444Z,7.03
2023-03-17T08:18:06.832Z,5.93
2023-03-17T08:20:34.923Z,4.80
2023-03-17T08:23:04.223Z,4.53
2023-03-17T08:25:32.086Z,6.10
2023-03-17T08:27:59.703Z,2.90
2023-03-17T08:30:27.423Z,2.38
2023-03-17T08:32:55.277Z,3.47
2023-03-17T08:35:23.840Z,3.50
2023-03-17T08:37:51.540Z,3.00
2023-03-17T08:40:22.274Z,3.53
2023-03-17T08:42:50.587Z,3.95
2023-03-17T08:45:19.343Z,2.63
2023-03-17T08:47:47.578Z,2.58
2023-03-17T08:50:19.698Z,2.60
2023-03-17T08:52:48.562Z,2.67
2023-03-17T08:55:16.948Z,2.03
2023-03-17T08:57:47.118Z,2.03
2023-03-17T09:00:20.281Z,2.10
2023-03-17T09:02:49.144Z,1.20
2023-03-17T09:05:17.914Z,2.78
2023-03-17T09:07:45.881Z,2.75
2023-03-17T09:10:14.756Z,1.73
2023-03-17T09:16:57.014Z,1.67
2023-03-17T09:19:24.770Z,1.88
2023-03-17T09:21:52.641Z,2.60
2023-03-17T09:24:21.816Z,1.85
2023-03-17T09:26:49.400Z,3.42
2023-03-17T09:29:17.021Z,3.03
2023-03-17T09:31:44.586Z,2.15
2023-03-17T09:34:13.568Z,2.58
2023-03-17T09:36:41.278Z,2.85
2023-03-17T09:39:09.727Z,2.17
2023-03-17T09:41:56.940Z,2.50
2023-03-17T09:44:41.126Z,2.25
2023-03-17T09:47:23.000Z,2.53
2023-03-17T09:49:54.355Z,1.70
2023-03-17T09:52:28.233Z,1.88
2023-03-17T09:54:56.906Z,2.60
2023-03-17T09:57:30.427Z,3.60
2023-03-17T10:00:06.272Z,3.40
2023-03-17T10:02:38.038Z,5.85
2023-03-17T10:05:19.462Z,1.80
2023-03-17T10:07:55.793Z,2.90
2023-03-17T10:10:30.938Z,3.53
2023-03-17T10:13:10.435Z,2.92
2023-03-17T10:15:45.458Z,2.20
2023-03-17T10:18:15.087Z,5.65
2023-03-17T10:20:51.636Z,3.33
2023-03-17T10:23:25.185Z,2.30
2023-03-17T10:28:27.528Z,7.20
2023-03-17T10:30:55.574Z,1.55
2023-03-17T10:33:23.175Z,1.63
2023-03-17T10:35:52.232Z,4.90
2023-03-17T10:38:22.457Z,2.25
2023-03-17T10:40:58.053Z,8.23
2023-03-17T10:43:30.487Z,2.35
2023-03-17T10:46:02.935Z,1.45
2023-03-17T10:48:32.051Z,1.63
2023-03-17T10:51:00.931Z,1.45
2023-03-17T10:53:29.136Z,19.98
2023-03-17T10:55:59.580Z,3.60
2023-03-17T10:58:38.683Z,1.42
2023-03-17T11:01:09.043Z,3.50
2023-03-17T11:03:41.022Z,2.42
2023-03-17T11:06:11.851Z,2.50
2023-03-17T11:08:42.468Z,1.73
2023-03-17T11:11:22.822Z,1.02
2023-03-17T11:13:50.442Z,1.63
2023-03-17T11:16:23.029Z,4.13
2023-03-17T11:18:55.828Z,2.25
2023-03-17T11:21:29.988Z,2.20
2023-03-17T11:24:04.483Z,2.00
2023-03-17T11:26:47.104Z,2.83
2023-03-17T11:29:23.859Z,2.50
2023-03-17T11:31:59.809Z,2.03
2023-03-17T11:34:39.826Z,1.75
2023-03-17T11:37:20.121Z,3.83
2023-03-17T11:39:55.327Z,3.80
2023-03-17T11:42:28.207Z,3.50
2023-03-17T11:45:09.895Z,2.08
2023-03-17T11:47:55.393Z,3.15
2023-03-17T11:50:30.810Z,2.25
2023-03-17T11:53:11.979Z,2.83
2023-03-17T11:55:46.088Z,2.67
2023-03-17T11:58:23.686Z,4.28
2023-03-17T12:00:56.989Z,1.95
2023-03-17T12:06:01.612Z,1.88
2023-03-17T12:08:38.627Z,4.00
2023-03-17T12:11:10.461Z,1.88
2023-03-17T12:13:42.995Z,2.35
2023-03-17T12:16:16.145Z,2.27
2023-03-17T12:18:55.149Z,3.85
2023-03-17T12:21:30.872Z,3.97
2023-03-17T12:24:04.534Z,3.33
2023-03-17T12:26:38.486Z,2.95
2023-03-17T12:29:12.890Z,2.92
2023-03-17T12:31:45.205Z,1.25
2023-03-17T12:34:21.342Z,2.42
2023-03-17T12:36:49.885Z,2.00
2023-03-17T12:39:22.457Z,2.13
2023-03-17T12:42:05.721Z,2.67
2023-03-17T12:44:51.149Z,2.45
2023-03-17T12:47:48.634Z,9.85
2023-03-17T12:50:33.628Z,6.30
2023-03-17T12:53:26.506Z,6.07
2023-03-17T12:55:59.318Z,4.00
2023-03-17T12:58:32.236Z,2.97
2023-03-17T13:01:08.800Z,3.90
2023-03-17T13:03:38.617Z,3.08
2023-03-17T13:06:16.583Z,2.63
2023-03-17T13:08:44.167Z,4.22
2023-03-17T13:11:19.576Z,3.08
2023-03-17T13:13:59.392Z,3.55
2023-03-17T13:16:29.771Z,1.52
2023-03-17T13:19:20.049Z,2.65
2023-03-17T13:21:53.664Z,2.97
2023-03-17T13:24:42.399Z,1.92
2023-03-17T13:27:15.650Z,5.32
2023-03-17T13:29:48.592Z,3.38
2023-03-17T13:32:38.214Z,2.55
2023-03-17T13:35:26.401Z,1.77
2023-03-17T13:38:26.936Z,2.30
2023-03-17T13:41:11.249Z,3.83
2023-03-17T13:43:52.070Z,4.10
2023-03-17T13:46:28.851Z,2.25
2023-03-17T13:48:57.373Z,1.35
2023-03-17T13:51:28.074Z,3.35
2023-03-17T13:53:58.971Z,3.33
2023-03-17T13:56:30.378Z,2.28
2023-03-17T13:59:14.159Z,2.80
2023-03-17T14:01:46.935Z,1.98
2023-03-17T14:04:21.382Z,3.83
2023-03-17T14:06:53.443Z,2.00
2023-03-17T14:09:39.780Z,4.25
2023-03-17T14:12:14.470Z,5.50
2023-03-17T14:14:50.545Z,2.35
2023-03-17T14:17:23.474Z,5.20
2023-03-17T14:20:01.670Z,3.63
2023-03-17T14:22:29.230Z,1.80
2023-03-17T14:25:01.449Z,3.65
2023-03-17T14:27:33.871Z,1.73
2023-03-17T14:30:09.904Z,2.53
2023-03-17T14:32:37.692Z,2.72
2023-03-17T14:35:06.957Z,3.55
2023-03-17T14:37:34.617Z,2.78
2023-03-17T14:40:02.175Z,2.95
2023-03-17T14:42:31.299Z,3.65
2023-03-17T14:45:03.791Z,1.85
2023-03-17T14:47:38.152Z,3.17
2023-03-17T14:50:14.338Z,2.13
2023-03-17T14:52:42.058Z,2.20
2023-03-17T14:55:14.814Z,2.95
2023-03-17T14:57:42.611Z,2.85
2023-03-17T15:00:34.786Z,1.83
2023-03-17T15:03:17.134Z,2.42
2023-03-17T15:05:45.334Z,1.70
2023-03-17T15:08:40.946Z,3.92
2023-03-17T15:11:09.762Z,3.47
2023-03-17T15:13:39.150Z,5.13
2023-03-17T15:16:07.902Z,2.45
2023-03-17T15:18:38.260Z,3.03
2023-03-17T15:21:06.172Z,2.65
2023-03-17T15:23:41.380Z,3.20
2023-03-17T15:26:23.653Z,3.03
2023-03-17T15:28:51.585Z,5.10
2023-03-17T15:31:23.352Z,3.08
2023-03-17T15:33:52.340Z,5.57
2023-03-17T15:36:31.800Z,3.63
2023-03-17T15:39:00.510Z,4.25
2023-03-17T15:41:28.144Z,3.58
2023-03-17T15:43:56.695Z,5.38
2023-03-17T15:46:27.246Z,4.95
2023-03-17T15:48:56.394Z,4.20
2023-03-17T15:51:23.985Z,2.33
2023-03-17T15:53:51.634Z,3.70
2023-03-17T15:56:21.712Z,2.72
2023-03-17T15:58:52.087Z,19.45
2023-03-17T16:01:20.716Z,9.00
2023-03-17T16:03:49.138Z,6.07
2023-03-17T16:06:19.665Z,5.60
2023-03-17T16:08:47.377Z,4.40
2023-03-17T16:11:16.606Z,4.43
2023-03-17T16:13:44.179Z,4.32
2023-03-17T16:16:21.279Z,5.97
2023-03-17T16:18:50.910Z,4.38
2023-03-17T16:21:20.212Z,10.00
2023-03-17T16:23:48.979Z,9.00
2023-03-17T16:26:17.202Z,3.92
2023-03-17T16:28:46.089Z,4.90
2023-03-17T16:31:23.437Z,6.22
2023-03-17T16:33:52.575Z,7.13
2023-03-17T16:36:22.913Z,3.50
2023-03-17T16:38:51.470Z,6.35
2023-03-17T16:41:22.098Z,8.30
2023-03-17T16:43:52.159Z,6.75
2023-03-17T16:46:22.012Z,6.25
2023-03-17T16:48:50.635Z,4.93
2023-03-17T16:51:18.928Z,5.32
2023-03-17T16:53:47.952Z,8.63
2023-03-17T16:56:18.725Z,8.00
2023-03-17T16:58:47.473Z,7.05
2023-03-17T17:01:17.879Z,6.40
2023-03-17T17:03:46.018Z,7.68
2023-03-17T17:06:15.311Z,6.68
2023-03-17T17:08:44.419Z,4.75
2023-03-17T17:11:14.498Z,6.47
2023-03-17T17:13:42.651Z,4.05
2023-03-17T17:16:19.758Z,3.53
2023-03-17T17:18:47.514Z,5.05
2023-03-17T17:21:15.149Z,3.72
2023-03-17T17:23:42.847Z,3.70
2023-03-17T17:26:10.433Z,6.93
2023-03-17T17:28:40.315Z,5.22
2023-03-17T17:31:08.884Z,4.60
2023-03-17T17:33:37.441Z,6.28
2023-03-17T17:36:06.893Z,14.15
2023-03-17T17:38:34.608Z,8.75
2023-03-17T17:41:05.556Z,6.78
2023-03-17T17:43:33.558Z,7.40
2023-03-17T17:46:02.689Z,6.32
2023-03-17T17:48:30.736Z,3.75
2023-03-17T17:50:58.530Z,5.03
2023-03-17T17:53:26.206Z,5.32
2023-03-17T17:55:53.819Z,6.53
2023-03-17T17:58:23.979Z,8.77
2023-03-17T18:00:53.809Z,7.20
2023-03-17T18:03:25.123Z,8.93
2023-03-17T18:05:53.202Z,5.45
2023-03-17T18:08:21.487Z,4.88
2023-03-17T18:10:51.502Z,4.50
2023-03-17T18:13:19.741Z,12.32
2023-03-17T18:15:47.312Z,7.40
2023-03-17T18:18:15.248Z,3.85
2023-03-17T18:20:44.292Z,6.53
2023-03-17T18:23:12.172Z,5.47
2023-03-17T18:25:39.814Z,7.28
2023-03-17T18:28:07.971Z,5.68
2023-03-17T18:30:36.223Z,8.20
2023-03-17T18:33:08.283Z,5.97
2023-03-17T18:35:36.512Z,7.28
2023-03-17T18:38:05.585Z,5.70
2023-03-17T18:40:33.810Z,4.65
2023-03-17T18:43:02.403Z,6.32
2023-03-17T18:45:30.078Z,5.13
2023-03-17T18:47:57.646Z,5.68
2023-03-17T18:50:25.331Z,9.38
2023-03-17T18:52:53.259Z,7.57
2023-03-17T18:55:22.292Z,9.15
2023-03-17T18:57:49.843Z,7.00
2023-03-17T19:00:18.489Z,6.38
2023-03-17T19:02:46.769Z,7.38
2023-03-17T19:05:15.201Z,7.13
2023-03-17T19:07:42.903Z,6.80
2023-03-17T19:10:11.974Z,8.35
2023-03-17T19:12:42.362Z,5.53
2023-03-17T19:15:12.365Z,7.75
2023-03-17T19:17:40.073Z,9.85
2023-03-17T19:20:09.941Z,7.25
2023-03-17T19:22:37.617Z,5.97
2023-03-17T19:25:06.282Z,5.20
2023-03-17T19:27:33.995Z,6.90
2023-03-17T19:30:02.910Z,5.72
2023-03-17T19:32:30.598Z,11.00
2023-03-17T19:34:58.189Z,5.57
2023-03-17T19:37:25.924Z,6.82
2023-03-17T19:39:53.472Z,7.03
2023-03-17T19:42:21.130Z,7.57
2023-03-17T19:44:48.756Z,7.15
2023-03-17T19:47:17.744Z,6.88
2023-03-17T19:49:45.845Z,8.02
2023-03-17T19:52:13.420Z,7.15
2023-03-17T19:54:44.630Z,8.48
2023-03-17T19:57:13.062Z,8.07
2023-03-17T19:59:40.805Z,7.20
2023-03-17T20:02:08.832Z,7.20
2023-03-17T20:04:37.736Z,8.50
2023-03-17T20:07:05.702Z,5.72
2023-03-17T20:09:33.308Z,9.70
2023-03-17T20:12:01.914Z,8.88
2023-03-17T20:14:29.564Z,8.98
2023-03-17T20:16:57.179Z,10.57
2023-03-17T20:19:24.751Z,8.38
2023-03-17T20:21:53.821Z,8.07
2023-03-17T20:24:21.641Z,9.82
2023-03-17T20:26:49.731Z,9.68
2023-03-17T20:29:17.611Z,11.32
2023-03-17T20:31:45.190Z,10.52
2023-03-17T20:34:12.750Z,15.55
2023-03-17T20:36:42.357Z,16.48
2023-03-17T20:39:14.867Z,18.52
2023-03-17T20:41:42.598Z,12.70
2023-03-17T20:44:10.571Z,9.27
2023-03-17T20:46:38.791Z,13.00
2023-03-17T20:49:07.337Z,11.85
2023-03-17T20:51:35.022Z,13.00
2023-03-17T20:54:03.297Z,11.93
2023-03-17T20:56:33.789Z,8.63
2023-03-17T20:59:04.872Z,10.45
2023-03-17T21:01:35.521Z,10.18
2023-03-17T21:04:05.690Z,14.75
2023-03-17T21:06:34.280Z,14.05
2023-03-17T21:09:02.440Z,11.30
2023-03-17T21:11:30.538Z,10.60
2023-03-17T21:13:59.595Z,10.70
2023-03-17T21:16:29.685Z,14.10
2023-03-17T21:18:57.764Z,13.73
2023-03-17T21:21:25.722Z,11.30
2023-03-17T21:23:53.406Z,12.73
2023-03-17T21:26:21.220Z,13.57
2023-03-17T21:28:49.285Z,11.73
2023-03-17T21:31:18.255Z,11.13
2023-03-17T21:33:48.486Z,13.05
2023-03-17T21:36:16.168Z,11.65
2023-03-17T21:38:43.803Z,11.98
2023-03-17T21:41:30.225Z,11.57
2023-03-17T21:43:58.059Z,10.32
2023-03-17T21:46:27.338Z,13.68
2023-03-17T21:48:55.844Z,12.60
2023-03-17T21:51:23.528Z,12.35
2023-03-17T21:53:51.341Z,15.20
2023-03-17T21:56:20.426Z,10.82
2023-03-17T21:58:48.855Z,12.52
2023-03-17T22:01:17.285Z,10.60
2023-03-17T22:03:46.379Z,9.68
2023-03-17T22:06:15.391Z,11.13
2023-03-17T22:08:43.006Z,8.68
2023-03-17T22:11:13.502Z,11.63
2023-03-17T22:13:41.724Z,14.13
2023-03-17T22:16:12.266Z,10.18
2023-03-17T22:18:40.459Z,10.07
2023-03-17T22:21:10.046Z,10.55
2023-03-17T22:23:41.372Z,10.25
2023-03-17T22:26:12.285Z,9.60
2023-03-17T22:28:40.665Z,9.63
2023-03-17T22:31:12.565Z,10.15
2023-03-17T22:33:42.746Z,12.02
2023-03-17T22:36:12.535Z,12.27
2023-03-17T22:38:40.272Z,10.30
2023-03-17T22:41:10.286Z,13.25
2023-03-17T22:43:38.465Z,10.18
2023-03-17T22:46:07.371Z,12.05
2023-03-17T22:48:35.853Z,11.20
2023-03-17T22:51:03.565Z,11.38
2023-03-17T22:53:32.846Z,14.00
2023-03-17T22:56:01.329Z,16.25
2023-03-17T22:58:29.497Z,12.13
2023-03-17T23:00:57.921Z,11.98
2023-03-17T23:03:26.907Z,12.68
2023-03-17T23:05:58.169Z,11.63
2023-03-17T23:08:29.220Z,11.05
2023-03-17T23:11:00.996Z,14.82
2023-03-17T23:13:30.304Z,16.02
2023-03-17T23:15:58.281Z,12.35
2023-03-17T23:18:26.076Z,15.57
2023-03-17T23:20:54.303Z,19.45
2023-03-17T23:23:21.911Z,12.30
2023-03-17T23:25:49.449Z,13.10
2023-03-17T23:28:19.114Z,12.30
2023-03-17T23:30:47.271Z,9.68
2023-03-17T23:33:17.249Z,12.07
2023-03-17T23:35:45.978Z,11.38
2023-03-17T23:38:13.594Z,7.65
2023-03-17T23:40:41.144Z,11.80
2023-03-17T23:43:08.785Z,14.15
2023-03-17T23:45:37.768Z,11.25
2023-03-17T23:48:05.340Z,13.25
2023-03-17T23:50:33.649Z,10.45
2023-03-17T23:53:01.720Z,13.73
2023-03-17T23:55:29.666Z,9.10
2023-03-17T23:57:57.187Z,11.02
